sensor_id;sensor_type;location;lat;lon;timestamp;pressure;altitude;pressure_sealevel;temperature;humidity
65376;BME280;51976;47.332;9.404;2024-02-21T00:00:40;93719.47;;;2.70;100.00
65376;BME280;51976;47.332;9.404;2024-02-21T00:03:07;93619.78;;;1.83;100.00
65376;BME280;51976;47.332;9.404;2024-02-21T00:05:32;93691.38;;;2.36;100.00
65376;BME280;51976;47.332;9.404;2024-02-21T00:07:59;93574.22;;;1.73;100.00
65376;BME280;51976;47.332;9.404;2024-02-21T00:10:24;93595.78;;;1.96;100.00
65376;BME280;51976;47.332;9.404;2024-02-21T00:12:50;93577.91;;;1.65;100.00
65376;BME280;51976;47.332;9.404;2024-02-21T00:15:16;93698.53;;;2.42;100.00
65376;BME280;51976;47.332;9.404;2024-02-21T00:17:43;93560.13;;;1.66;100.00
65376;BME280;51976;47.332;9.404;2024-02-21T00:20:09;93691.50;;;2.54;100.00
65376;BME280;51976;47.332;9.404;2024-02-21T00:22:34;93672.13;;;2.41;100.00
65376;BME280;51976;47.332;9.404;2024-02-21T00:25:00;93690.25;;;2.57;100.00
65376;BME280;51976;47.332;9.404;2024-02-21T00:27:25;93567.06;;;1.74;100.00
65376;BME280;51976;47.332;9.404;2024-02-21T00:29:50;93684.63;;;2.33;100.00
65376;BME280;51976;47.332;9.404;2024-02-21T00:32:16;93690.56;;;2.35;100.00
65376;BME280;51976;47.332;9.404;2024-02-21T00:34:41;93526.09;;;1.43;100.00
65376;BME280;51976;47.332;9.404;2024-02-21T00:37:07;93681.66;;;2.55;100.00
65376;BME280;51976;47.332;9.404;2024-02-21T00:39:32;93603.31;;;2.13;100.00
65376;BME280;51976;47.332;9.404;2024-02-21T00:41:58;93518.50;;;1.53;100.00
65376;BME280;51976;47.332;9.404;2024-02-21T00:44:23;93684.16;;;2.50;100.00
65376;BME280;51976;47.332;9.404;2024-02-21T00:46:48;93691.19;;;2.31;100.00
65376;BME280;51976;47.332;9.404;2024-02-21T00:49:14;93589.38;;;1.66;100.00
65376;BME280;51976;47.332;9.404;2024-02-21T00:51:39;93684.00;;;2.38;100.00
65376;BME280;51976;47.332;9.404;2024-02-21T00:54:05;93623.56;;;2.07;100.00
65376;BME280;51976;47.332;9.404;2024-02-21T00:56:31;93673.09;;;2.08;100.00
65376;BME280;51976;47.332;9.404;2024-02-21T00:58:56;93593.31;;;1.50;100.00
65376;BME280;51976;47.332;9.404;2024-02-21T01:01:23;93677.47;;;1.76;100.00
65376;BME280;51976;47.332;9.404;2024-02-21T01:03:49;93576.25;;;1.07;100.00
65376;BME280;51976;47.332;9.404;2024-02-21T01:06:14;93592.53;;;1.37;100.00
65376;BME280;51976;47.332;9.404;2024-02-21T01:08:40;93613.75;;;1.56;100.00
65376;BME280;51976;47.332;9.404;2024-02-21T01:11:05;93601.50;;;1.49;100.00
65376;BME280;51976;47.332;9.404;2024-02-21T01:13:31;93661.63;;;2.01;100.00
65376;BME280;51976;47.332;9.404;2024-02-21T01:15:56;93672.41;;;2.19;100.00
65376;BME280;51976;47.332;9.404;2024-02-21T01:18:21;93662.34;;;2.28;100.00
65376;BME280;51976;47.332;9.404;2024-02-21T01:20:47;93566.25;;;1.73;100.00
65376;BME280;51976;47.332;9.404;2024-02-21T01:23:12;93649.53;;;2.18;100.00
65376;BME280;51976;47.332;9.404;2024-02-21T01:25:38;93652.34;;;2.23;100.00
65376;BME280;51976;47.332;9.404;2024-02-21T01:28:03;93567.25;;;1.79;100.00
65376;BME280;51976;47.332;9.404;2024-02-21T01:30:29;93593.41;;;1.82;100.00
65376;BME280;51976;47.332;9.404;2024-02-21T01:32:57;93555.88;;;1.58;100.00
65376;BME280;51976;47.332;9.404;2024-02-21T01:35:23;93571.03;;;1.45;100.00
65376;BME280;51976;47.332;9.404;2024-02-21T01:37:48;93558.38;;;1.47;100.00
65376;BME280;51976;47.332;9.404;2024-02-21T01:40:14;93539.19;;;1.38;100.00
65376;BME280;51976;47.332;9.404;2024-02-21T01:42:40;93524.50;;;1.29;100.00
65376;BME280;51976;47.332;9.404;2024-02-21T01:45:06;93643.19;;;2.13;100.00
65376;BME280;51976;47.332;9.404;2024-02-21T01:47:32;93550.59;;;1.52;100.00
65376;BME280;51976;47.332;9.404;2024-02-21T01:49:57;93644.00;;;2.13;100.00
65376;BME280;51976;47.332;9.404;2024-02-21T01:52:23;93638.72;;;2.00;100.00
65376;BME280;51976;47.332;9.404;2024-02-21T01:54:49;93481.09;;;1.04;100.00
65376;BME280;51976;47.332;9.404;2024-02-21T01:57:15;93640.34;;;2.08;100.00
65376;BME280;51976;47.332;9.404;2024-02-21T01:59:40;93586.25;;;1.82;100.00
65376;BME280;51976;47.332;9.404;2024-02-21T02:02:06;93602.91;;;2.09;100.00
65376;BME280;51976;47.332;9.404;2024-02-21T02:04:32;93528.53;;;1.45;100.00
65376;BME280;51976;47.332;9.404;2024-02-21T02:07:00;93624.59;;;2.13;100.00
65376;BME280;51976;47.332;9.404;2024-02-21T02:09:27;93582.59;;;1.77;100.00
65376;BME280;51976;47.332;9.404;2024-02-21T02:11:53;93626.72;;;1.91;100.00
65376;BME280;51976;47.332;9.404;2024-02-21T02:14:18;93533.28;;;1.36;100.00
65376;BME280;51976;47.332;9.404;2024-02-21T02:16:46;93503.25;;;1.29;100.00
65376;BME280;51976;47.332;9.404;2024-02-21T02:19:13;93557.06;;;1.69;100.00
65376;BME280;51976;47.332;9.404;2024-02-21T02:21:39;93595.41;;;1.93;100.00
65376;BME280;51976;47.332;9.404;2024-02-21T02:24:08;93578.91;;;1.78;100.00
65376;BME280;51976;47.332;9.404;2024-02-21T02:26:33;93568.09;;;1.73;100.00
65376;BME280;51976;47.332;9.404;2024-02-21T02:29:01;93538.72;;;1.61;100.00
65376;BME280;51976;47.332;9.404;2024-02-21T02:31:27;93557.25;;;1.67;100.00
65376;BME280;51976;47.332;9.404;2024-02-21T02:33:53;93562.31;;;1.82;100.00
65376;BME280;51976;47.332;9.404;2024-02-21T02:36:18;93447.13;;;1.12;100.00
65376;BME280;51976;47.332;9.404;2024-02-21T02:38:44;93527.88;;;1.62;100.00
65376;BME280;51976;47.332;9.404;2024-02-21T02:41:09;93435.75;;;0.98;100.00
65376;BME280;51976;47.332;9.404;2024-02-21T02:43:37;93466.16;;;1.09;100.00
65376;BME280;51976;47.332;9.404;2024-02-21T02:46:03;93561.31;;;1.77;100.00
65376;BME280;51976;47.332;9.404;2024-02-21T02:48:29;93558.84;;;1.88;100.00
65376;BME280;51976;47.332;9.404;2024-02-21T02:50:54;93561.06;;;1.91;100.00
65376;BME280;51976;47.332;9.404;2024-02-21T02:53:20;93455.47;;;1.29;100.00
65376;BME280;51976;47.332;9.404;2024-02-21T02:55:45;93492.94;;;1.59;100.00
65376;BME280;51976;47.332;9.404;2024-02-21T02:58:11;93436.06;;;1.22;100.00
65376;BME280;51976;47.332;9.404;2024-02-21T03:00:36;93538.53;;;1.94;100.00
65376;BME280;51976;47.332;9.404;2024-02-21T03:03:02;93552.63;;;1.56;100.00
65376;BME280;51976;47.332;9.404;2024-02-21T03:05:32;93528.91;;;1.61;100.00
65376;BME280;51976;47.332;9.404;2024-02-21T03:07:58;93456.28;;;1.23;100.00
65376;BME280;51976;47.332;9.404;2024-02-21T03:10:24;93534.69;;;1.90;100.00
65376;BME280;51976;47.332;9.404;2024-02-21T03:12:49;93512.84;;;1.81;100.00
65376;BME280;51976;47.332;9.404;2024-02-21T03:15:18;93508.25;;;1.95;100.00
65376;BME280;51976;47.332;9.404;2024-02-21T03:17:43;93528.47;;;2.02;100.00
65376;BME280;51976;47.332;9.404;2024-02-21T03:20:09;93461.06;;;1.52;100.00
65376;BME280;51976;47.332;9.404;2024-02-21T03:22:37;93436.44;;;1.32;100.00
65376;BME280;51976;47.332;9.404;2024-02-21T03:25:03;93488.78;;;1.69;100.00
65376;BME280;51976;47.332;9.404;2024-02-21T03:27:29;93485.69;;;1.73;100.00
65376;BME280;51976;47.332;9.404;2024-02-21T03:29:54;93404.41;;;1.20;100.00
65376;BME280;51976;47.332;9.404;2024-02-21T03:32:20;93459.25;;;1.46;100.00
65376;BME280;51976;47.332;9.404;2024-02-21T03:34:48;93518.53;;;1.91;100.00
65376;BME280;51976;47.332;9.404;2024-02-21T03:37:13;93455.34;;;1.55;100.00
65376;BME280;51976;47.332;9.404;2024-02-21T03:39:39;93499.34;;;1.83;100.00
65376;BME280;51976;47.332;9.404;2024-02-21T03:42:05;93484.63;;;1.80;100.00
65376;BME280;51976;47.332;9.404;2024-02-21T03:44:31;93509.16;;;1.82;100.00
65376;BME280;51976;47.332;9.404;2024-02-21T03:46:57;93440.88;;;1.38;100.00
65376;BME280;51976;47.332;9.404;2024-02-21T03:49:22;93502.03;;;1.76;100.00
65376;BME280;51976;47.332;9.404;2024-02-21T03:51:48;93494.47;;;1.73;100.00
65376;BME280;51976;47.332;9.404;2024-02-21T03:54:13;93495.41;;;1.47;100.00
65376;BME280;51976;47.332;9.404;2024-02-21T03:56:39;93361.75;;;0.64;100.00
65376;BME280;51976;47.332;9.404;2024-02-21T03:59:06;93477.81;;;1.59;100.00
65376;BME280;51976;47.332;9.404;2024-02-21T04:01:31;93489.94;;;1.80;100.00
65376;BME280;51976;47.332;9.404;2024-02-21T04:03:57;93403.38;;;1.28;100.00
65376;BME280;51976;47.332;9.404;2024-02-21T04:06:22;93381.47;;;1.32;100.00
65376;BME280;51976;47.332;9.404;2024-02-21T04:08:47;93374.28;;;1.40;100.00
65376;BME280;51976;47.332;9.404;2024-02-21T04:11:13;93466.50;;;2.02;100.00
65376;BME280;51976;47.332;9.404;2024-02-21T04:13:38;93461.44;;;1.94;100.00
65376;BME280;51976;47.332;9.404;2024-02-21T04:16:04;93392.31;;;1.31;100.00
65376;BME280;51976;47.332;9.404;2024-02-21T04:18:31;93387.19;;;1.36;100.00
65376;BME280;51976;47.332;9.404;2024-02-21T04:20:56;93372.53;;;1.27;100.00
65376;BME280;51976;47.332;9.404;2024-02-21T04:23:22;93409.44;;;1.73;100.00
65376;BME280;51976;47.332;9.404;2024-02-21T04:25:47;93439.91;;;2.02;100.00
65376;BME280;51976;47.332;9.404;2024-02-21T04:28:12;93362.59;;;1.47;100.00
65376;BME280;51976;47.332;9.404;2024-02-21T04:30:38;93332.78;;;1.39;100.00
65376;BME280;51976;47.332;9.404;2024-02-21T04:33:03;93438.28;;;2.01;100.00
65376;BME280;51976;47.332;9.404;2024-02-21T04:35:29;93424.13;;;2.07;100.00
65376;BME280;51976;47.332;9.404;2024-02-21T04:37:54;93326.59;;;1.51;100.00
65376;BME280;51976;47.332;9.404;2024-02-21T04:40:20;93308.06;;;1.38;100.00
65376;BME280;51976;47.332;9.404;2024-02-21T04:42:45;93325.34;;;1.54;100.00
65376;BME280;51976;47.332;9.404;2024-02-21T04:45:14;93391.34;;;2.13;100.00
65376;BME280;51976;47.332;9.404;2024-02-21T04:47:39;93397.09;;;2.35;100.00
65376;BME280;51976;47.332;9.404;2024-02-21T04:50:05;93306.53;;;1.80;100.00
65376;BME280;51976;47.332;9.404;2024-02-21T04:52:31;93298.81;;;1.72;100.00
65376;BME280;51976;47.332;9.404;2024-02-21T04:54:56;93383.66;;;2.23;100.00
65376;BME280;51976;47.332;9.404;2024-02-21T04:57:22;93396.66;;;2.13;100.00
65376;BME280;51976;47.332;9.404;2024-02-21T04:59:47;93382.34;;;2.14;100.00
65376;BME280;51976;47.332;9.404;2024-02-21T05:02:13;93284.03;;;1.58;100.00
65376;BME280;51976;47.332;9.404;2024-02-21T05:04:39;93290.22;;;1.77;100.00
65376;BME280;51976;47.332;9.404;2024-02-21T05:07:06;93361.53;;;2.29;100.00
65376;BME280;51976;47.332;9.404;2024-02-21T05:09:32;93362.97;;;2.07;100.00
65376;BME280;51976;47.332;9.404;2024-02-21T05:11:57;93307.78;;;1.53;100.00
65376;BME280;51976;47.332;9.404;2024-02-21T05:14:26;93362.09;;;2.13;100.00
65376;BME280;51976;47.332;9.404;2024-02-21T05:16:52;93283.09;;;1.70;100.00
65376;BME280;51976;47.332;9.404;2024-02-21T05:19:17;93314.84;;;1.90;100.00
65376;BME280;51976;47.332;9.404;2024-02-21T05:21:43;93273.28;;;1.46;100.00
65376;BME280;51976;47.332;9.404;2024-02-21T05:24:08;93360.03;;;2.15;100.00
65376;BME280;51976;47.332;9.404;2024-02-21T05:26:33;93267.88;;;1.59;100.00
65376;BME280;51976;47.332;9.404;2024-02-21T05:28:59;93275.13;;;1.70;100.00
65376;BME280;51976;47.332;9.404;2024-02-21T05:31:25;93308.75;;;2.08;100.00
65376;BME280;51976;47.332;9.404;2024-02-21T05:33:50;93203.34;;;1.52;100.00
65376;BME280;51976;47.332;9.404;2024-02-21T05:36:16;93357.56;;;2.57;100.00
65376;BME280;51976;47.332;9.404;2024-02-21T05:38:41;93353.59;;;2.66;100.00
65376;BME280;51976;47.332;9.404;2024-02-21T05:41:06;93268.09;;;2.01;100.00
65376;BME280;51976;47.332;9.404;2024-02-21T05:43:32;93225.75;;;1.81;100.00
65376;BME280;51976;47.332;9.404;2024-02-21T05:45:57;93331.66;;;2.27;100.00
65376;BME280;51976;47.332;9.404;2024-02-21T05:48:23;93269.53;;;1.79;100.00
65376;BME280;51976;47.332;9.404;2024-02-21T05:50:49;93334.31;;;2.27;100.00
65376;BME280;51976;47.332;9.404;2024-02-21T05:53:15;93239.59;;;1.90;100.00
65376;BME280;51976;47.332;9.404;2024-02-21T05:55:40;93325.69;;;2.50;100.00
65376;BME280;51976;47.332;9.404;2024-02-21T05:58:06;93233.25;;;1.91;100.00
65376;BME280;51976;47.332;9.404;2024-02-21T06:00:32;93251.97;;;1.78;100.00
65376;BME280;51976;47.332;9.404;2024-02-21T06:02:57;93258.34;;;1.95;100.00
65376;BME280;51976;47.332;9.404;2024-02-21T06:05:23;93250.94;;;1.97;100.00
65376;BME280;51976;47.332;9.404;2024-02-21T06:07:48;93321.34;;;2.37;100.00
65376;BME280;51976;47.332;9.404;2024-02-21T06:10:14;93330.63;;;2.47;100.00
65376;BME280;51976;47.332;9.404;2024-02-21T06:12:39;93236.03;;;1.96;100.00
65376;BME280;51976;47.332;9.404;2024-02-21T06:15:05;93301.53;;;2.15;100.00
65376;BME280;51976;47.332;9.404;2024-02-21T06:17:31;93335.09;;;2.34;100.00
65376;BME280;51976;47.332;9.404;2024-02-21T06:19:56;93333.84;;;2.37;100.00
65376;BME280;51976;47.332;9.404;2024-02-21T06:22:22;93340.34;;;2.41;100.00
65376;BME280;51976;47.332;9.404;2024-02-21T06:24:47;93249.47;;;1.83;100.00
65376;BME280;51976;47.332;9.404;2024-02-21T06:27:13;93289.25;;;2.14;100.00
65376;BME280;51976;47.332;9.404;2024-02-21T06:29:40;93263.22;;;1.98;100.00
65376;BME280;51976;47.332;9.404;2024-02-21T06:32:05;93350.34;;;2.64;100.00
65376;BME280;51976;47.332;9.404;2024-02-21T06:34:31;93257.03;;;2.04;100.00
65376;BME280;51976;47.332;9.404;2024-02-21T06:36:57;93265.75;;;2.11;100.00
65376;BME280;51976;47.332;9.404;2024-02-21T06:39:22;93238.56;;;2.09;100.00
65376;BME280;51976;47.332;9.404;2024-02-21T06:41:48;93206.94;;;1.83;100.00
65376;BME280;51976;47.332;9.404;2024-02-21T06:44:16;93326.22;;;2.41;100.00
65376;BME280;51976;47.332;9.404;2024-02-21T06:46:41;93260.44;;;2.11;100.00
65376;BME280;51976;47.332;9.404;2024-02-21T06:49:06;93213.88;;;1.84;100.00
65376;BME280;51976;47.332;9.404;2024-02-21T06:51:32;93337.47;;;2.61;100.00
65376;BME280;51976;47.332;9.404;2024-02-21T06:53:58;93236.13;;;1.89;100.00
65376;BME280;51976;47.332;9.404;2024-02-21T06:56:24;93322.59;;;2.35;100.00
65376;BME280;51976;47.332;9.404;2024-02-21T06:58:56;93228.16;;;1.89;100.00
65376;BME280;51976;47.332;9.404;2024-02-21T07:01:22;93247.84;;;2.00;100.00
65376;BME280;51976;47.332;9.404;2024-02-21T07:03:47;93334.88;;;2.72;100.00
65376;BME280;51976;47.332;9.404;2024-02-21T07:06:16;93246.09;;;2.30;100.00
65376;BME280;51976;47.332;9.404;2024-02-21T07:08:41;93311.56;;;2.86;100.00
65376;BME280;51976;47.332;9.404;2024-02-21T07:11:07;93305.13;;;2.94;100.00
65376;BME280;51976;47.332;9.404;2024-02-21T07:13:33;93301.31;;;3.01;100.00
65376;BME280;51976;47.332;9.404;2024-02-21T07:15:59;93299.34;;;2.97;100.00
65376;BME280;51976;47.332;9.404;2024-02-21T07:18:24;93255.03;;;2.72;100.00
65376;BME280;51976;47.332;9.404;2024-02-21T07:20:53;93222.06;;;2.55;100.00
65376;BME280;51976;47.332;9.404;2024-02-21T07:23:19;93293.91;;;2.73;100.00
65376;BME280;51976;47.332;9.404;2024-02-21T07:25:44;93270.25;;;2.65;100.00
65376;BME280;51976;47.332;9.404;2024-02-21T07:28:10;93213.16;;;2.13;100.00
65376;BME280;51976;47.332;9.404;2024-02-21T07:30:38;93190.69;;;2.09;100.00
65376;BME280;51976;47.332;9.404;2024-02-21T07:33:04;93205.09;;;2.38;100.00
65376;BME280;51976;47.332;9.404;2024-02-21T07:35:33;93234.53;;;2.73;100.00
65376;BME280;51976;47.332;9.404;2024-02-21T07:37:58;93204.31;;;2.67;100.00
65376;BME280;51976;47.332;9.404;2024-02-21T07:40:24;93267.13;;;3.17;100.00
65376;BME280;51976;47.332;9.404;2024-02-21T07:42:52;93271.09;;;3.26;100.00
65376;BME280;51976;47.332;9.404;2024-02-21T07:45:24;93204.31;;;2.97;100.00
65376;BME280;51976;47.332;9.404;2024-02-21T07:47:50;93307.94;;;3.70;100.00
65376;BME280;51976;47.332;9.404;2024-02-21T07:50:18;93179.09;;;3.12;100.00
65376;BME280;51976;47.332;9.404;2024-02-21T07:53:02;93263.06;;;3.67;100.00
65376;BME280;51976;47.332;9.404;2024-02-21T07:55:29;93286.84;;;3.92;100.00
65376;BME280;51976;47.332;9.404;2024-02-21T07:57:55;93236.75;;;3.71;100.00
65376;BME280;51976;47.332;9.404;2024-02-21T08:00:20;93206.28;;;3.55;100.00
65376;BME280;51976;47.332;9.404;2024-02-21T08:02:47;93275.03;;;4.12;100.00
65376;BME280;51976;47.332;9.404;2024-02-21T08:05:18;93270.88;;;4.04;100.00
65376;BME280;51976;47.332;9.404;2024-02-21T08:07:44;93223.88;;;3.56;100.00
65376;BME280;51976;47.332;9.404;2024-02-21T08:10:10;93135.41;;;3.13;100.00
65376;BME280;51976;47.332;9.404;2024-02-21T08:12:36;93175.34;;;3.54;100.00
65376;BME280;51976;47.332;9.404;2024-02-21T08:15:02;93260.41;;;4.26;100.00
65376;BME280;51976;47.332;9.404;2024-02-21T08:17:34;93251.69;;;4.42;100.00
65376;BME280;51976;47.332;9.404;2024-02-21T08:20:18;93229.53;;;4.41;100.00
65376;BME280;51976;47.332;9.404;2024-02-21T08:22:43;93208.22;;;3.83;100.00
65376;BME280;51976;47.332;9.404;2024-02-21T08:25:09;93250.91;;;3.95;100.00
65376;BME280;51976;47.332;9.404;2024-02-21T08:27:34;93248.69;;;4.15;100.00
65376;BME280;51976;47.332;9.404;2024-02-21T08:29:59;93240.06;;;4.60;100.00
65376;BME280;51976;47.332;9.404;2024-02-21T08:32:25;93148.22;;;4.32;100.00
65376;BME280;51976;47.332;9.404;2024-02-21T08:34:51;93229.06;;;5.13;100.00
65376;BME280;51976;47.332;9.404;2024-02-21T08:37:19;93185.66;;;5.06;100.00
65376;BME280;51976;47.332;9.404;2024-02-21T08:39:45;93178.78;;;5.27;100.00
65376;BME280;51976;47.332;9.404;2024-02-21T08:42:10;93110.13;;;4.65;100.00
65376;BME280;51976;47.332;9.404;2024-02-21T08:44:39;93135.78;;;5.12;100.00
65376;BME280;51976;47.332;9.404;2024-02-21T08:47:05;93186.66;;;5.50;100.00
65376;BME280;51976;47.332;9.404;2024-02-21T08:49:33;93216.81;;;5.79;100.00
65376;BME280;51976;47.332;9.404;2024-02-21T08:51:58;93173.72;;;5.59;100.00
65376;BME280;51976;47.332;9.404;2024-02-21T08:54:23;93178.06;;;5.82;100.00
65376;BME280;51976;47.332;9.404;2024-02-21T08:56:52;93138.94;;;5.59;100.00
65376;BME280;51976;47.332;9.404;2024-02-21T08:59:20;93140.97;;;5.68;100.00
65376;BME280;51976;47.332;9.404;2024-02-21T09:01:47;93099.22;;;5.67;100.00
65376;BME280;51976;47.332;9.404;2024-02-21T09:04:12;93098.88;;;5.81;100.00
65376;BME280;51976;47.332;9.404;2024-02-21T09:06:38;93210.22;;;6.59;100.00
65376;BME280;51976;47.332;9.404;2024-02-21T09:09:08;93208.34;;;6.59;100.00
65376;BME280;51976;47.332;9.404;2024-02-21T09:11:36;93166.13;;;6.44;100.00
65376;BME280;51976;47.332;9.404;2024-02-21T09:14:02;93164.75;;;6.42;100.00
65376;BME280;51976;47.332;9.404;2024-02-21T09:16:32;93179.06;;;6.74;100.00
65376;BME280;51976;47.332;9.404;2024-02-21T09:18:58;93182.22;;;6.93;100.00
65376;BME280;51976;47.332;9.404;2024-02-21T09:21:24;93206.53;;;6.87;100.00
65376;BME280;51976;47.332;9.404;2024-02-21T09:23:49;93193.47;;;6.68;100.00
65376;BME280;51976;47.332;9.404;2024-02-21T09:26:14;93201.56;;;6.73;100.00
65376;BME280;51976;47.332;9.404;2024-02-21T09:28:43;93189.03;;;6.79;100.00
65376;BME280;51976;47.332;9.404;2024-02-21T09:31:10;93101.13;;;6.27;100.00
65376;BME280;51976;47.332;9.404;2024-02-21T09:33:37;93191.94;;;6.99;100.00
65376;BME280;51976;47.332;9.404;2024-02-21T09:36:03;93144.41;;;6.90;100.00
65376;BME280;51976;47.332;9.404;2024-02-21T09:38:31;93191.97;;;7.26;100.00
65376;BME280;51976;47.332;9.404;2024-02-21T09:41:08;93179.59;;;7.52;100.00
65376;BME280;51976;47.332;9.404;2024-02-21T09:43:38;93165.41;;;7.25;100.00
65376;BME280;51976;47.332;9.404;2024-02-21T09:46:05;93118.53;;;7.00;100.00
65376;BME280;51976;47.332;9.404;2024-02-21T09:49:21;93153.88;;;7.56;100.00
65376;BME280;51976;47.332;9.404;2024-02-21T09:51:42;93177.50;;;7.91;100.00
65376;BME280;51976;47.332;9.404;2024-02-21T09:54:09;93068.53;;;7.16;100.00
65376;BME280;51976;47.332;9.404;2024-02-21T09:56:35;93096.66;;;7.45;100.00
65376;BME280;51976;47.332;9.404;2024-02-21T09:59:09;93036.19;;;7.28;100.00
65376;BME280;51976;47.332;9.404;2024-02-21T10:01:36;93161.56;;;8.22;100.00
65376;BME280;51976;47.332;9.404;2024-02-21T10:04:05;93065.94;;;7.63;100.00
65376;BME280;51976;47.332;9.404;2024-02-21T10:06:31;93077.91;;;7.88;100.00
65376;BME280;51976;47.332;9.404;2024-02-21T10:08:57;93104.03;;;8.07;100.00
65376;BME280;51976;47.332;9.404;2024-02-21T10:11:24;93155.38;;;8.63;100.00
65376;BME280;51976;47.332;9.404;2024-02-21T10:13:51;93054.38;;;8.10;100.00
65376;BME280;51976;47.332;9.404;2024-02-21T10:16:31;93071.69;;;8.34;100.00
65376;BME280;51976;47.332;9.404;2024-02-21T10:18:58;93153.34;;;9.06;100.00
65376;BME280;51976;47.332;9.404;2024-02-21T10:21:24;93150.97;;;9.14;100.00
65376;BME280;51976;47.332;9.404;2024-02-21T10:23:50;93155.00;;;9.17;100.00
65376;BME280;51976;47.332;9.404;2024-02-21T10:26:17;93144.50;;;9.15;99.59
65376;BME280;51976;47.332;9.404;2024-02-21T10:28:43;93010.34;;;8.11;93.51
65376;BME280;51976;47.332;9.404;2024-02-21T10:31:20;93119.94;;;8.81;93.96
65376;BME280;51976;47.332;9.404;2024-02-21T10:33:56;93137.81;;;9.23;95.03
65376;BME280;51976;47.332;9.404;2024-02-21T10:36:23;93053.56;;;8.87;94.92
65376;BME280;51976;47.332;9.404;2024-02-21T10:38:52;93014.25;;;8.45;97.26
65376;BME280;51976;47.332;9.404;2024-02-21T10:41:20;93139.16;;;9.21;99.02
65376;BME280;51976;47.332;9.404;2024-02-21T10:43:53;93072.38;;;8.82;100.00
65376;BME280;51976;47.332;9.404;2024-02-21T10:46:22;93013.47;;;8.55;100.00
65376;BME280;51976;47.332;9.404;2024-02-21T10:49:01;93034.72;;;8.77;100.00
65376;BME280;51976;47.332;9.404;2024-02-21T10:51:31;93021.88;;;8.99;100.00
65376;BME280;51976;47.332;9.404;2024-02-21T10:54:23;93052.53;;;9.39;100.00
65376;BME280;51976;47.332;9.404;2024-02-21T10:56:51;93099.84;;;10.01;100.00
65376;BME280;51976;47.332;9.404;2024-02-21T10:59:19;93034.25;;;9.56;100.00
65376;BME280;51976;47.332;9.404;2024-02-21T11:01:45;92977.22;;;9.24;100.00
65376;BME280;51976;47.332;9.404;2024-02-21T11:04:11;93089.34;;;9.94;100.00
65376;BME280;51976;47.332;9.404;2024-02-21T11:06:38;93089.91;;;9.91;100.00
65376;BME280;51976;47.332;9.404;2024-02-21T11:09:09;92958.94;;;9.15;100.00
65376;BME280;51976;47.332;9.404;2024-02-21T11:11:40;92945.22;;;9.12;100.00
65376;BME280;51976;47.332;9.404;2024-02-21T11:14:10;93049.78;;;9.90;100.00
65376;BME280;51976;47.332;9.404;2024-02-21T11:16:40;93037.91;;;10.06;100.00
65376;BME280;51976;47.332;9.404;2024-02-21T11:19:18;92967.44;;;9.68;100.00
65376;BME280;51976;47.332;9.404;2024-02-21T11:21:44;93056.69;;;10.31;100.00
65376;BME280;51976;47.332;9.404;2024-02-21T11:24:09;92961.53;;;9.61;100.00
65376;BME280;51976;47.332;9.404;2024-02-21T11:26:37;92971.16;;;9.88;100.00
65376;BME280;51976;47.332;9.404;2024-02-21T11:29:03;92961.69;;;10.05;100.00
65376;BME280;51976;47.332;9.404;2024-02-21T11:31:41;93030.91;;;10.69;100.00
65376;BME280;51976;47.332;9.404;2024-02-21T11:34:10;93021.44;;;10.77;98.61
65376;BME280;51976;47.332;9.404;2024-02-21T11:36:39;92946.84;;;10.08;97.59
65376;BME280;51976;47.332;9.404;2024-02-21T11:39:11;92897.84;;;10.06;100.00
65376;BME280;51976;47.332;9.404;2024-02-21T11:41:36;92920.94;;;10.17;96.44
65376;BME280;51976;47.332;9.404;2024-02-21T11:44:02;92978.59;;;10.21;91.69
65376;BME280;51976;47.332;9.404;2024-02-21T11:46:27;92892.16;;;9.48;90.82
65376;BME280;51976;47.332;9.404;2024-02-21T11:48:53;92961.41;;;10.07;92.22
65376;BME280;51976;47.332;9.404;2024-02-21T11:51:24;92915.59;;;10.12;94.10
65376;BME280;51976;47.332;9.404;2024-02-21T11:53:51;92989.09;;;10.72;93.38
65376;BME280;51976;47.332;9.404;2024-02-21T11:56:18;92916.31;;;10.33;100.00
65376;BME280;51976;47.332;9.404;2024-02-21T11:58:43;92980.72;;;10.78;100.00
65376;BME280;51976;47.332;9.404;2024-02-21T12:01:08;92866.16;;;9.88;100.00
65376;BME280;51976;47.332;9.404;2024-02-21T12:03:35;92908.38;;;10.02;100.00
65376;BME280;51976;47.332;9.404;2024-02-21T12:06:01;92878.22;;;10.00;100.00
65376;BME280;51976;47.332;9.404;2024-02-21T12:08:40;92932.50;;;10.28;100.00
65376;BME280;51976;47.332;9.404;2024-02-21T12:11:21;92970.91;;;10.48;100.00
65376;BME280;51976;47.332;9.404;2024-02-21T12:13:47;92914.44;;;10.28;100.00
65376;BME280;51976;47.332;9.404;2024-02-21T12:16:15;92886.44;;;10.24;100.00
65376;BME280;51976;47.332;9.404;2024-02-21T12:18:43;92869.31;;;10.05;100.00
65376;BME280;51976;47.332;9.404;2024-02-21T12:21:15;92920.66;;;10.24;100.00
65376;BME280;51976;47.332;9.404;2024-02-21T12:23:40;92878.38;;;10.14;100.00
65376;BME280;51976;47.332;9.404;2024-02-21T12:26:06;92913.09;;;10.70;100.00
65376;BME280;51976;47.332;9.404;2024-02-21T12:28:35;92917.19;;;10.62;100.00
65376;BME280;51976;47.332;9.404;2024-02-21T12:31:01;92851.44;;;10.19;100.00
65376;BME280;51976;47.332;9.404;2024-02-21T12:33:29;92931.34;;;10.83;100.00
65376;BME280;51976;47.332;9.404;2024-02-21T12:35:55;92927.88;;;10.77;100.00
65376;BME280;51976;47.332;9.404;2024-02-21T12:38:21;92862.13;;;10.39;100.00
65376;BME280;51976;47.332;9.404;2024-02-21T12:40:46;92925.94;;;10.83;100.00
65376;BME280;51976;47.332;9.404;2024-02-21T12:43:12;92926.47;;;10.85;100.00
65376;BME280;51976;47.332;9.404;2024-02-21T12:45:37;92903.50;;;10.93;100.00
65376;BME280;51976;47.332;9.404;2024-02-21T12:48:03;92907.28;;;10.92;100.00
65376;BME280;51976;47.332;9.404;2024-02-21T12:50:29;92904.78;;;10.95;100.00
65376;BME280;51976;47.332;9.404;2024-02-21T12:52:56;92898.75;;;11.08;100.00
65376;BME280;51976;47.332;9.404;2024-02-21T12:55:23;92827.00;;;10.78;100.00
65376;BME280;51976;47.332;9.404;2024-02-21T12:57:49;92884.78;;;11.30;100.00